Latest Weather Observations for Nullarbor

IDS60801

Issued at 1:31 am CDT Wednesday 1 April 2015 (issued every 30 minutes, with the page automatically refreshed every 10 minutes)

About weather observations | Map of weather stations | Latest weather observations for SA | Other Formats
Station Details ID: 018106 Name: NULLARBOR Lat: -31.45 Lon: 130.90 Height: 64.0 m
Data from the previous 72 hours. | See also: Recent months at Nullarbor
Date/Time
CDT
Temp
°C
App
Temp
°C
Dew
Point
Rel
Hum
%
Delta-T
°C
Wind Press
QNH
hPa
Press
MSL
hPa
Rain
since 9 am
mm
Dir
 
Spd
km/h
Gust
km/h
Spd
kts
Gust
kts
01/01:30am 21.1 21.4 15.0 68 3.6 ENE 7 9 4 5 1017.7 1017.5 0.0
01/01:00am 21.4 21.1 15.5 69 3.5 E 11 13 6 7 1017.8 1017.6 0.0
01/12:30am 21.7 22.4 16.0 70 3.4 SSE 7 9 4 5 1018.1 1017.9 0.0
01/12:00am 21.8 21.4 16.1 70 3.4 SSW 13 17 7 9 1018.2 1018.0 0.0
 
Date/Time
CDT
Temp
°C
App
Temp
°C
Dew
Point
Rel
Hum
%
Delta-T
°C
Wind Press
QNH
hPa
Press
MSL
hPa
Rain
since 9 am
mm
Dir
 
Spd
km/h
Gust
km/h
Spd
kts
Gust
kts
31/11:30pm 21.8 20.8 16.7 73 3.1 WSW 17 20 9 11 1018.6 1018.4 0.0
31/11:00pm 21.6 20.4 17.6 78 2.5 WSW 20 28 11 15 1018.8 1018.6 0.0
31/10:30pm 21.7 19.5 17.9 79 2.4 WSW 26 35 14 19 1018.9 1018.7 0.0
31/10:00pm 22.1 19.8 17.5 75 2.8 WSW 26 33 14 18 1018.5 1018.3 0.0
31/09:30pm 22.3 20.7 16.6 70 3.5 SW 20 28 11 15 1018.1 1017.9 0.0
31/09:00pm 22.3 21.3 16.6 70 3.5 SW 17 24 9 13 1017.7 1017.5 0.0
31/08:30pm 22.4 19.9 16.2 68 3.8 WSW 24 30 13 16 1017.2 1017.0 0.0
31/08:00pm 22.8 20.0 15.4 63 4.4 SW 24 33 13 18 1016.6 1016.4 0.0
31/07:30pm 23.4 19.4 14.1 56 5.5 SW 28 37 15 20 1016.2 1016.0 0.0
31/07:00pm 24.2 19.9 13.1 50 6.4 SW 28 39 15 21 1015.8 1015.6 0.0
31/06:30pm 25.3 19.7 11.5 42 7.8 SW 32 41 17 22 1015.3 1015.1 0.0
31/06:00pm 27.2 20.7 10.4 35 9.4 SW 35 43 19 23 1014.9 1014.7 0.0
31/05:30pm 29.9 24.2 8.3 26 11.9 W 28 43 15 23 1014.4 1014.2 0.0
31/05:26pm 31.0 25.1 7.5 23 12.8 NW 28 43 15 23 1014.4 1014.2 0.0
31/05:00pm 36.8 29.4 3.9 13 17.5 NNW 32 65 17 35 1013.9 1013.7 0.0
31/04:54pm 37.0 30.0 4.0 13 17.6 NNW 30 65 16 35 1014.0 1013.8 0.0
31/04:51pm 37.5 30.7 3.3 12 18.1 NNW 28 59 15 32 1013.8 1013.6 0.0
31/04:30pm 37.4 29.9 3.2 12 18.1 N 32 50 17 27 1014.1 1013.9 0.0
31/04:00pm 37.5 30.0 3.3 12 18.1 N 32 46 17 25 1014.3 1014.1 0.0
31/03:30pm 37.1 29.5 3.0 12 17.9 N 32 48 17 26 1014.6 1014.4 0.0
31/03:15pm 36.8 29.0 2.8 12 17.8 N 33 52 18 28 1014.8 1014.6 0.0
31/03:00pm 36.8 28.8 3.9 13 17.5 N 35 46 19 25 1015.1 1014.9 0.0
31/02:30pm 36.4 28.0 3.6 13 17.3 N 37 50 20 27 1015.8 1015.6 0.0
31/02:00pm 35.8 26.9 3.1 13 17.1 N 39 52 21 28 1016.2 1016.0 0.0
31/01:38pm 35.8 26.9 3.1 13 17.1 N 39 57 21 31 1016.8 1016.6 0.0
31/01:30pm 35.9 27.2 4.2 14 16.8 N 39 52 21 28 1016.9 1016.7 0.0
31/01:01pm 35.1 25.9 3.6 14 16.5 NNE 41 59 22 32 1017.4 1017.2 0.0
31/01:00pm 35.7 26.4 3.0 13 17.1 NNE 41 56 22 30 1017.4 1017.2 0.0
31/12:35pm 34.4 25.5 3.1 14 16.2 N 39 57 21 31 1017.8 1017.6 0.0
31/12:30pm 35.1 25.9 3.6 14 16.5 N 41 54 22 29 1017.9 1017.7 0.0
31/12:00pm 33.2 23.5 4.0 16 15.2 NNE 44 57 24 31 1018.2 1018.0 0.0
31/11:30am 32.7 22.6 3.6 16 15.0 NNE 46 61 25 33 1018.4 1018.2 0.0
31/11:00am 30.9 20.8 3.8 18 13.9 NNE 46 59 25 32 1018.5 1018.3 0.0
31/10:51am 30.4 21.7 4.2 19 13.5 NNE 39 57 21 31 1018.6 1018.4 0.0
31/10:30am 29.2 19.8 4.6 21 12.7 NNE 43 54 23 29 1018.9 1018.7 0.0
31/10:00am 27.1 18.9 4.8 24 11.4 N 37 48 20 26 1019.2 1019.0 0.0
31/09:30am 24.9 18.5 5.2 28 10.0 NNE 28 41 15 22 1019.2 1019.0 0.0
31/09:00am 21.0 16.3 6.2 38 7.4 NNE 20 24 11 13 1019.2 1019.0 0.2
31/08:30am 17.3 13.2 6.2 48 5.4 NE 17 20 9 11 1019.0 1018.8 0.2
31/08:00am 16.0 11.6 6.4 53 4.7 NE 19 22 10 12 1018.8 1018.6 0.2
31/07:30am 16.2 11.8 6.6 53 4.7 NE 19 20 10 11 1018.5 1018.3 0.2
31/07:00am 16.4 12.1 7.1 54 4.6 NE 19 22 10 12 1018.1 1017.9 0.2
31/06:30am 16.6 12.4 7.3 54 4.6 NE 19 22 10 12 1018.0 1017.8 0.2
31/06:00am 16.8 12.7 7.7 55 4.6 NE 19 20 10 11 1017.9 1017.7 0.2
31/05:30am 17.2 13.5 7.8 54 4.8 NE 17 20 9 11 1017.9 1017.7 0.2
31/05:00am 18.1 14.1 8.1 52 5.1 NE 19 20 10 11 1018.0 1017.8 0.2
31/04:30am 17.6 13.7 8.5 55 4.7 NE 19 20 10 11 1018.2 1018.0 0.2
31/04:00am 18.2 14.7 8.7 54 4.9 NE 17 20 9 11 1018.4 1018.2 0.2
31/03:30am 18.5 14.8 9.6 56 4.7 NE 19 22 10 12 1018.6 1018.4 0.2
31/03:00am 17.8 14.5 10.9 64 3.7 NE 19 22 10 12 1018.8 1018.6 0.2
31/02:30am 17.4 14.4 12.1 71 2.9 NE 19 22 10 12 1019.0 1018.8 0.2
31/02:00am 15.7 13.8 14.1 90 0.9 ENE 17 19 9 10 1019.3 1019.1 0.2
31/01:30am 15.5 14.1 14.4 93 0.6 ENE 15 15 8 8 1019.6 1019.4 0.2
31/01:00am 15.8 15.5 14.3 91 0.9 E 9 13 5 7 1020.0 1019.8 0.2
31/12:30am 16.7 17.0 15.1 90 0.9 ESE 7 9 4 5 1020.1 1019.9 0.2
31/12:00am 17.1 17.1 15.3 89 1.0 SSE 9 11 5 6 1020.5 1020.3 0.2
 
Date/Time
CDT
Temp
°C
App
Temp
°C
Dew
Point
Rel
Hum
%
Delta-T
°C
Wind Press
QNH
hPa
Press
MSL
hPa
Rain
since 9 am
mm
Dir
 
Spd
km/h
Gust
km/h
Spd
kts
Gust
kts
30/11:30pm 17.4 17.0 15.2 87 1.3 SSE 11 13 6 7 1020.7 1020.5 0.2
30/11:00pm 18.0 16.9 15.4 85 1.5 SSE 15 17 8 9 1020.7 1020.5 0.2
30/10:30pm 18.4 17.9 16.0 86 1.4 SSE 13 19 7 10 1020.7 1020.5 0.2
30/10:00pm 18.6 18.0 16.6 88 1.2 SSE 15 19 8 10 1020.7 1020.5 0.2
30/09:30pm 18.8 17.9 16.8 88 1.2 SSE 17 20 9 11 1020.4 1020.2 0.2
30/09:00pm 19.2 18.4 17.0 87 1.3 SSE 17 20 9 11 1020.3 1020.1 0.2
30/08:30pm 19.5 18.5 16.7 84 1.7 SSE 17 22 9 12 1020.0 1019.8 0.2
30/08:00pm 20.3 18.9 16.5 79 2.3 SSE 19 24 10 13 1019.8 1019.6 0.2
30/07:30pm 21.5 19.5 15.6 69 3.5 SSE 20 26 11 14 1019.6 1019.4 0.2
30/07:00pm 22.4 19.7 15.7 66 4.0 SE 24 30 13 16 1019.7 1019.5 0.2
30/06:30pm 23.3 20.6 15.6 62 4.6 SSE 24 30 13 16 1019.5 1019.3 0.2
30/06:00pm 23.9 20.9 15.9 61 4.8 SSE 26 32 14 17 1019.4 1019.2 0.2
30/05:30pm 25.3 22.0 15.0 53 6.2 SSE 26 32 14 17 1019.2 1019.0 0.2
30/05:00pm 27.1 23.2 13.4 42 8.1 SSE 26 30 14 16 1019.1 1018.9 0.2
30/04:30pm 27.6 24.1 13.5 41 8.3 SSE 24 30 13 16 1019.1 1018.9 0.2
30/04:00pm 28.2 24.3 12.1 37 9.4 SSE 24 32 13 17 1019.1 1018.9 0.2
30/03:30pm 28.7 25.0 13.8 40 8.9 S 26 33 14 18 1019.4 1019.2 0.2
30/03:00pm 29.6 27.2 12.5 35 10.0 SSE 17 26 9 14 1019.7 1019.5 0.2
30/02:30pm 32.5 28.3 5.9 19 14.2 NNE 17 30 9 16 1019.8 1019.6 0.2
30/02:00pm 32.2 26.8 6.4 20 13.9 NNE 24 33 13 18 1020.2 1020.0 0.2
30/01:30pm 31.5 26.9 6.5 21 13.4 NNE 20 37 11 20 1020.7 1020.5 0.2
30/01:00pm 30.7 25.6 5.9 21 13.2 NNE 22 33 12 18 1021.0 1020.8 0.2
30/12:30pm 30.4 26.5 7.0 23 12.6 NNE 17 26 9 14 1021.4 1021.2 0.2
30/12:00pm 28.5 24.1 6.6 25 11.6 NE 19 28 10 15 1021.9 1021.7 0.2
30/11:30am 27.4 23.5 8.8 31 10.2 ENE 19 24 10 13 1022.2 1022.0 0.2
30/11:00am 24.1 21.2 11.1 44 7.3 ENE 17 20 9 11 1022.5 1022.4 0.2
30/10:30am 22.1 18.9 11.2 50 6.0 E 19 24 10 13 1022.6 1022.5 0.0
30/10:00am 21.3 17.7 13.2 60 4.6 ESE 24 30 13 16 1022.6 1022.5 0.0
30/09:30am 20.1 17.1 14.9 72 3.0 ESE 24 32 13 17 1022.4 1022.3 0.0
30/09:00am 18.1 16.6 16.3 89 1.1 ESE 19 26 10 14 1022.1 1021.9 0.0
30/08:30am 16.6 15.1 16.4 99 0.1 ESE 19 22 10 12 1021.9 1021.7 0.0
30/08:00am 15.6 13.8 15.4 99 0.1 SE 19 20 10 11 1021.7 1021.5 0.0
30/07:30am 15.4 13.9 15.2 99 0.1 SE 17 20 9 11 1021.5 1021.3 0.0
30/07:00am 15.4 13.5 15.2 99 0.1 SE 19 20 10 11 1021.3 1021.1 0.0
30/06:30am 15.2 13.6 15.0 99 0.1 SE 17 19 9 10 1021.2 1021.0 0.0
30/06:00am 14.7 12.9 14.5 99 0.1 SSE 17 19 9 10 1021.2 1021.0 0.0
30/05:30am 14.4 12.5 14.2 99 0.1 SE 17 17 9 9 1021.1 1020.9 0.0
30/05:00am 14.6 12.8 14.4 99 0.1 SE 17 17 9 9 1021.1 1020.9 0.0
30/04:30am 13.7 12.0 13.5 99 0.1 SE 15 17 8 9 1021.4 1021.2 0.0
30/04:00am 13.5 11.3 13.3 99 0.1 SSE 17 17 9 9 1021.6 1021.4 0.0
30/03:30am 13.9 12.2 13.7 99 0.1 SSE 15 17 8 9 1021.9 1021.7 0.0
30/03:00am 14.3 12.8 14.1 99 0.1 SSE 15 15 8 8 1022.2 1022.0 0.0
30/02:30am 14.6 13.5 14.4 99 0.1 SSE 13 17 7 9 1022.3 1022.2 0.0
30/02:00am 14.9 13.2 14.7 99 0.1 S 17 17 9 9 1022.5 1022.4 0.0
30/01:30am 14.7 13.2 14.2 97 0.3 SSE 15 17 8 9 1022.8 1022.7 0.0
30/01:00am 15.1 13.6 14.3 95 0.5 SSE 15 17 8 9 1022.9 1022.8 0.0
30/12:30am 15.5 14.4 14.4 93 0.6 SSE 13 15 7 8 1023.1 1022.9 0.0
30/12:00am 16.2 15.2 14.7 91 0.9 SSE 13 15 7 8 1023.2 1023.0 0.0
 
Date/Time
CDT
Temp
°C
App
Temp
°C
Dew
Point
Rel
Hum
%
Delta-T
°C
Wind Press
QNH
hPa
Press
MSL
hPa
Rain
since 9 am
mm
Dir
 
Spd
km/h
Gust
km/h
Spd
kts
Gust
kts
29/11:30pm 16.9 16.1 15.1 89 1.0 SSE 13 15 7 8 1023.2 1023.0 0.0
29/11:00pm 17.5 16.8 15.3 87 1.3 SSE 13 15 7 8 1023.2 1023.0 0.0
29/10:30pm 17.9 16.7 15.0 83 1.7 SSE 15 17 8 9 1022.7 1022.6 0.0
29/10:00pm 18.2 16.5 14.7 80 2.0 SSE 17 20 9 11 1022.5 1022.4 0.0
29/09:30pm 18.5 16.8 14.6 78 2.3 SSE 17 22 9 12 1022.1 1021.9 0.0
29/09:00pm 18.7 16.6 14.6 77 2.4 SE 19 22 10 12 1021.6 1021.4 0.0
29/08:30pm 19.2 16.9 14.2 73 2.9 SSE 19 22 10 12 1021.5 1021.3 0.0
29/08:00pm 19.9 16.9 13.8 68 3.5 SSE 22 28 12 15 1021.3 1021.1 0.0
29/07:30pm 21.0 16.9 12.7 59 4.7 SSE 26 33 14 18 1021.1 1020.9 0.0
29/07:00pm 22.1 17.3 11.5 51 5.9 SSE 28 35 15 19 1020.9 1020.7 0.0
29/06:30pm 23.1 17.9 10.2 44 7.1 SSE 28 35 15 19 1020.7 1020.5 0.0
29/06:00pm 24.1 18.5 8.9 38 8.2 SSE 28 33 15 18 1020.5 1020.3 0.0
29/05:30pm 24.4 18.5 9.2 38 8.2 SSE 30 39 16 21 1020.3 1020.1 0.0
29/05:00pm 24.9 18.6 8.8 36 8.7 SSE 32 39 17 21 1020.2 1020.0 0.0
29/04:30pm 25.6 18.8 6.7 30 9.9 SSE 32 39 17 21 1019.9 1019.7 0.0
29/04:00pm 25.7 19.0 7.3 31 9.7 SSE 32 37 17 20 1020.1 1019.9 0.0
29/03:30pm 26.0 19.7 7.6 31 9.8 SSE 30 37 16 20 1020.3 1020.1 0.0
29/03:00pm 26.7 20.8 7.7 30 10.2 SSE 28 35 15 19 1020.5 1020.3 0.0
29/02:30pm 27.2 21.2 7.1 28 10.7 SSE 28 37 15 20 1020.8 1020.6 0.0
29/02:00pm 26.9 21.2 6.9 28 10.6 SSE 26 33 14 18 1021.3 1021.1 0.0
29/01:30pm 26.5 22.2 7.0 29 10.3 SSE 19 30 10 16 1021.7 1021.5 0.0
29/01:00pm 27.6 24.6 7.5 28 10.8 SE 13 24 7 13 1022.0 1021.8 0.0
29/12:30pm 26.7 24.2 6.7 28 10.5 SSE 9 15 5 8 1022.3 1022.2 0.0
29/12:00pm 25.5 22.6 6.7 30 9.8 ENE 11 17 6 9 1022.6 1022.5 0.0
29/11:30am 24.4 21.5 6.6 32 9.2 E 11 15 6 8 1022.6 1022.5 0.0
29/11:00am 23.9 20.8 7.1 34 8.8 ESE 13 19 7 10 1022.6 1022.5 0.0
29/10:30am 22.4 19.6 8.5 41 7.3 E 13 19 7 10 1022.6 1022.5 0.0
29/10:00am 21.6 18.9 10.4 49 6.1 ESE 15 19 8 10 1022.4 1022.3 0.0
29/09:30am 19.9 18.0 12.9 64 4.0 ESE 15 19 8 10 1022.2 1022.0 0.0
29/09:00am 17.5 16.4 13.0 75 2.5 ESE 11 13 6 7 1021.9 1021.7 0.0
29/08:30am 13.6 11.1 11.1 85 1.3 SE 15 19 8 10 1021.6 1021.4 0.0
29/08:00am 12.3 9.3 9.1 81 1.6 SSE 15 17 8 9 1021.3 1021.1 0.0
29/07:30am 12.2 9.1 7.3 72 2.4 SSE 13 17 7 9 1020.9 1020.7 0.0
29/07:00am 12.4 9.6 6.9 69 2.6 SE 11 13 6 7 1020.7 1020.5 0.0
29/06:30am 12.8 9.7 7.3 69 2.7 SSE 13 15 7 8 1020.5 1020.3 0.0
29/06:00am 13.6 11.7 7.4 66 3.0 ENE 7 11 4 6 1020.1 1019.9 0.0
29/05:30am 14.3 11.7 7.8 65 3.2 NE 11 13 6 7 1019.9 1019.7 0.0
29/05:00am 14.4 12.6 7.9 65 3.2 E 7 7 4 4 1019.8 1019.6 0.0
29/04:30am 14.0 11.9 8.2 68 2.9 ENE 9 11 5 6 1019.9 1019.7 0.0
29/04:00am 14.2 11.4 8.4 68 2.9 NE 13 15 7 8 1019.7 1019.5 0.0
29/03:30am 14.4 11.1 7.9 65 3.2 ENE 15 17 8 9 1019.7 1019.5 0.0
29/03:00am 15.1 12.2 8.1 63 3.5 NE 13 15 7 8 1020.0 1019.8 0.0
29/02:30am 15.5 12.6 9.6 68 3.1 ENE 15 19 8 10 1020.4 1020.2 0.0
29/02:00am 15.5 13.9 10.3 71 2.7 E 9 13 5 7 1020.6 1020.4 0.0

Other Formats:

Comma delimited format used in spreadsheet applications
http://www.bom.gov.au/fwo/IDS60801/IDS60801.94651.axf

JavaScript Object Notation format (JSON) in row-major order
http://www.bom.gov.au/fwo/IDS60801/IDS60801.94651.json